East Wenona, Illinois
Current Conditions -  °F | °C
As of 10:15 AM on Thursday 23 Oct 2014 (Local Time) from KC75 Reporting Station
Clear Clear  
Wind Chill:   Ceiling: Unl
Heat Index: 10°   Visibility: 10mi
Dew Point:   Wind: 7mph
Humidity: 71%   Direction: 180°S
Pressure: 30.2"   Gusts: NA
Location:  41.0632°N, 89.0208°W
Report Text: KC75 231515Z AUTO 18006KT 10SM CLR 10/05 A3020 RMK AO2 T00980047
Loading
Personal Weather Stations






























Interactive Weather Map
Tropical Storm Tracking
New forecast layout! Learn more

10-Day Weather Forecast

Advertisements
Track Severe Weather on mobile